Time;durP1;ratioP1;P1;durP2;ratioP2;P2;SDS_P1;SDS_P2;PMS_P1;PMS_P2;Temp;Humidity;BMP_temperature;BMP_pressure;BME280_temperature;BME280_humidity;BME280_pressure;Samples;Min_cycle;Max_cycle;Signal;HPM_P1;HPM_P2
2021/08/15 00:00:21;;;;;;;;;;;;;;;;;;5073020;28;19912;-71
2021/08/15 00:02:47;;;;;;;;;;;;;;;;;;5069763;28;20269;-71
2021/08/15 00:05:13;;;;;;;;;;;;;;;;;;5074411;28;19912;-71
2021/08/15 00:07:39;;;;;;;;;;;;;;;;;;5073530;28;19916;-71
2021/08/15 00:10:05;;;;;;;;;;;;;;;;;;5072594;28;19967;-71
2021/08/15 00:12:31;;;;;;;;;;;;;;;;;;5072619;28;19956;-71
2021/08/15 00:14:57;;;;;;;;;;;;;;;;;;5070962;28;20380;-60
2021/08/15 00:17:23;;;;;;;;;;;;;;;;;;5072447;28;19920;-60
2021/08/15 00:19:49;;;;;;;;;;;;;;;;;;5073866;28;20002;-60
2021/08/15 00:22:14;;;;;;;;;;;;;;;;;;5072536;28;20279;-60
2021/08/15 00:24:40;;;;;;;;;;;;;;;;;;5072332;28;19993;-59
2021/08/15 00:27:06;;;;;;;;;;;;;;;;;;5071852;28;19913;-60
2021/08/15 00:29:32;;;;;;;;;;;;;;;;;;5069428;28;19921;-60
2021/08/15 00:31:58;;;;;;;;;;;;;;;;;;5075421;28;19995;-59
2021/08/15 00:34:24;;;;;;;;;;;;;;;;;;5072637;28;19912;-60
2021/08/15 00:36:50;;;;;;;;;;;;;;;;;;5071972;28;19999;-60
2021/08/15 00:39:16;;;;;;;;;;;;;;;;;;5072418;28;19923;-60
2021/08/15 00:41:41;;;;;;;;;;;;;;;;;;5068189;28;20391;-59
2021/08/15 00:44:08;;;;;;;;;;;;;;;;;;5075347;28;19995;-59
2021/08/15 00:46:34;;;;;;;;;;;;;;;;;;5074727;28;19956;-60
2021/08/15 00:49:00;;;;;;;;;;;;;;;;;;5076143;28;20398;-60
2021/08/15 00:51:26;;;;;;;;;;;;;;;;;;5075903;28;19912;-60
2021/08/15 00:53:52;;;;;;;;;;;;;;;;;;5073644;28;20356;-60
2021/08/15 00:56:18;;;;;;;;;;;;;;;;;;5075704;28;20360;-60
2021/08/15 00:58:44;;;;;;;;;;;;;;;;;;5077114;28;19920;-60
2021/08/15 01:01:10;;;;;;;;;;;;;;;;;;5076059;28;19926;-60
2021/08/15 01:03:35;;;;;;;;;;;;;;;;;;5075884;28;20007;-60
2021/08/15 01:06:01;;;;;;;;;;;;;;;;;;5074076;28;19957;-59
2021/08/15 01:08:27;;;;;;;;;;;;;;;;;;5073844;28;19908;-59
2021/08/15 01:10:53;;;;;;;;;;;;;;;;;;5077956;28;20346;-59
2021/08/15 01:13:19;;;;;;;;;;;;;;;;;;5075385;28;19954;-59
2021/08/15 01:15:45;;;;;;;;;;;;;;;;;;5075209;28;20380;-59
2021/08/15 01:18:11;;;;;;;;;;;;;;;;;;5075528;28;19920;-59
2021/08/15 01:20:37;;;;;;;;;;;;;;;;;;5071492;28;20410;-59
2021/08/15 01:23:02;;;;;;;;;;;;;;;;;;5078318;28;20015;-60
2021/08/15 01:25:28;;;;;;;;;;;;;;;;;;5075487;28;19912;-60
2021/08/15 01:27:54;;;;;;;;;;;;;;;;;;5075462;28;19913;-59
2021/08/15 01:30:22;;;;;;;;;;;;;;;;;;5075208;28;19919;-59
2021/08/15 01:32:49;;;;;;;;;;;;;;;;;;5072253;28;20325;-59
2021/08/15 01:35:14;;;;;;;;;;;;;;;;;;5075539;28;19931;-59
2021/08/15 01:37:40;;;;;;;;;;;;;;;;;;5077534;28;20276;-60
2021/08/15 01:40:06;;;;;;;;;;;;;;;;;;5075282;28;19916;-59
2021/08/15 01:42:32;;;;;;;;;;;;;;;;;;5060064;28;19967;-59
2021/08/15 01:44:59;;;;;;;;;;;;;;;;;;5072444;28;19913;-59
2021/08/15 01:47:25;;;;;;;;;;;;;;;;;;5074121;28;19909;-59
2021/08/15 01:49:50;;;;;;;;;;;;;;;;;;5076613;28;19909;-59
2021/08/15 01:52:16;;;;;;;;;;;;;;;;;;5074914;28;19947;-59
2021/08/15 01:54:42;;;;;;;;;;;;;;;;;;5075239;28;19935;-60
2021/08/15 01:57:08;;;;;;;;;;;;;;;;;;5073875;28;20334;-60
2021/08/15 01:59:34;;;;;;;;;;;;;;;;;;5070717;28;19917;-60
2021/08/15 02:02:00;;;;;;;;;;;;;;;;;;5077963;28;19913;-60
2021/08/15 02:04:26;;;;;;;;;;;;;;;;;;5074681;28;20003;-59
2021/08/15 02:06:52;;;;;;;;;;;;;;;;;;5074855;28;19935;-60
2021/08/15 02:09:18;;;;;;;;;;;;;;;;;;5074550;28;20291;-60
2021/08/15 02:11:43;;;;;;;;;;;;;;;;;;5070277;28;19920;-59
2021/08/15 02:14:09;;;;;;;;;;;;;;;;;;5076783;28;20283;-60
2021/08/15 02:16:35;;;;;;;;;;;;;;;;;;5074825;28;19916;-59
2021/08/15 02:19:01;;;;;;;;;;;;;;;;;;5073914;28;19917;-59
2021/08/15 02:21:27;;;;;;;;;;;;;;;;;;5074375;28;19962;-60
2021/08/15 02:23:53;;;;;;;;;;;;;;;;;;5071403;28;19912;-60
2021/08/15 02:26:19;;;;;;;;;;;;;;;;;;5074600;28;19912;-59
2021/08/15 02:28:45;;;;;;;;;;;;;;;;;;5075464;28;19913;-59
2021/08/15 02:31:10;;;;;;;;;;;;;;;;;;5073496;28;20352;-60
2021/08/15 02:33:36;;;;;;;;;;;;;;;;;;5073509;28;19923;-60
2021/08/15 02:36:02;;;;;;;;;;;;;;;;;;5073059;28;20006;-60
2021/08/15 02:38:28;;;;;;;;;;;;;;;;;;5072092;28;19929;-59
2021/08/15 02:40:54;;;;;;;;;;;;;;;;;;5076053;28;20364;-60
2021/08/15 02:43:20;;;;;;;;;;;;;;;;;;5073677;28;19908;-60
2021/08/15 02:45:46;;;;;;;;;;;;;;;;;;5073957;28;19913;-60
2021/08/15 02:48:12;;;;;;;;;;;;;;;;;;5073097;28;20350;-60
2021/08/15 02:50:37;;;;;;;;;;;;;;;;;;5069735;28;19913;-60
2021/08/15 02:53:03;;;;;;;;;;;;;;;;;;5076684;28;20291;-60
2021/08/15 02:55:29;;;;;;;;;;;;;;;;;;5073725;28;19954;-60
2021/08/15 02:57:55;;;;;;;;;;;;;;;;;;5073668;28;19921;-59
2021/08/15 03:00:21;;;;;;;;;;;;;;;;;;5073378;28;19999;-59
2021/08/15 03:02:47;;;;;;;;;;;;;;;;;;5069884;28;19936;-60
2021/08/15 03:05:13;;;;;;;;;;;;;;;;;;5075162;28;20018;-60
2021/08/15 03:07:39;;;;;;;;;;;;;;;;;;5073899;28;19913;-60
2021/08/15 03:10:05;;;;;;;;;;;;;;;;;;5072877;28;19908;-60
2021/08/15 03:12:30;;;;;;;;;;;;;;;;;;5073500;28;19965;-60
2021/08/15 03:14:56;;;;;;;;;;;;;;;;;;5070992;28;19921;-60
2021/08/15 03:17:22;;;;;;;;;;;;;;;;;;5073188;28;19916;-60
2021/08/15 03:19:48;;;;;;;;;;;;;;;;;;5074640;28;19908;-59
2021/08/15 03:22:14;;;;;;;;;;;;;;;;;;5073284;28;20612;-60
2021/08/15 03:24:40;;;;;;;;;;;;;;;;;;5073140;28;19912;-60
2021/08/15 03:27:06;;;;;;;;;;;;;;;;;;5072500;28;20424;-60
2021/08/15 03:29:32;;;;;;;;;;;;;;;;;;5070005;28;19948;-60
2021/08/15 03:31:58;;;;;;;;;;;;;;;;;;5075957;28;20002;-59
2021/08/15 03:34:23;;;;;;;;;;;;;;;;;;5072736;28;19916;-60
2021/08/15 03:36:49;;;;;;;;;;;;;;;;;;5072946;28;20253;-59
2021/08/15 03:39:15;;;;;;;;;;;;;;;;;;5073217;28;20314;-60
2021/08/15 03:41:41;;;;;;;;;;;;;;;;;;5068828;28;19908;-60
2021/08/15 03:44:07;;;;;;;;;;;;;;;;;;5075922;28;19973;-60
2021/08/15 03:46:33;;;;;;;;;;;;;;;;;;5072683;28;19912;-60
2021/08/15 03:48:59;;;;;;;;;;;;;;;;;;5073174;28;19947;-59
2021/08/15 03:51:25;;;;;;;;;;;;;;;;;;5073047;28;20252;-59
2021/08/15 03:53:51;;;;;;;;;;;;;;;;;;5070283;28;19913;-60
2021/08/15 03:56:16;;;;;;;;;;;;;;;;;;5073007;28;19985;-60
2021/08/15 03:58:42;;;;;;;;;;;;;;;;;;5073836;28;19964;-60
2021/08/15 04:01:08;;;;;;;;;;;;;;;;;;5073120;28;20279;-60
2021/08/15 04:03:34;;;;;;;;;;;;;;;;;;5073065;28;19919;-60
2021/08/15 04:06:06;;;;;;;;;;;;;;;;;;5071245;28;20002;-60
2021/08/15 04:08:32;;;;;;;;;;;;;;;;;;5069763;28;19920;-60
2021/08/15 04:10:58;;;;;;;;;;;;;;;;;;5075342;28;19908;-59
2021/08/15 04:13:24;;;;;;;;;;;;;;;;;;5072804;28;19908;-60
2021/08/15 04:15:50;;;;;;;;;;;;;;;;;;5072393;28;19942;-60
2021/08/15 04:18:16;;;;;;;;;;;;;;;;;;5072748;28;19983;-60
2021/08/15 04:20:42;;;;;;;;;;;;;;;;;;5050982;28;20007;-60
2021/08/15 04:23:08;;;;;;;;;;;;;;;;;;5078522;28;19916;-60
2021/08/15 04:25:33;;;;;;;;;;;;;;;;;;5076589;28;19923;-60
2021/08/15 04:27:59;;;;;;;;;;;;;;;;;;5076245;28;20364;-60
2021/08/15 04:30:25;;;;;;;;;;;;;;;;;;5076403;28;19912;-60
2021/08/15 04:32:51;;;;;;;;;;;;;;;;;;5073652;28;20314;-59
2021/08/15 04:35:17;;;;;;;;;;;;;;;;;;5077039;28;19909;-60
2021/08/15 04:37:43;;;;;;;;;;;;;;;;;;5076631;28;19927;-60
2021/08/15 04:40:09;;;;;;;;;;;;;;;;;;5076248;28;19912;-60
2021/08/15 04:42:35;;;;;;;;;;;;;;;;;;5076144;28;19966;-60
2021/08/15 04:45:00;;;;;;;;;;;;;;;;;;5074783;28;19912;-59
2021/08/15 04:47:26;;;;;;;;;;;;;;;;;;5074921;28;20343;-60
2021/08/15 04:49:52;;;;;;;;;;;;;;;;;;5077341;28;19912;-59
2021/08/15 04:52:18;;;;;;;;;;;;;;;;;;5076010;28;20311;-59
2021/08/15 04:54:44;;;;;;;;;;;;;;;;;;5076191;28;20005;-59
2021/08/15 04:57:10;;;;;;;;;;;;;;;;;;5075562;28;19969;-60
2021/08/15 04:59:36;;;;;;;;;;;;;;;;;;5071793;28;20288;-60
2021/08/15 05:02:03;;;;;;;;;;;;;;;;;;5078724;28;19912;-60
2021/08/15 05:04:29;;;;;;;;;;;;;;;;;;5075829;28;20007;-60
2021/08/15 05:06:55;;;;;;;;;;;;;;;;;;5075805;28;20359;-60
2021/08/15 05:09:20;;;;;;;;;;;;;;;;;;5075319;28;19995;-61
2021/08/15 05:11:48;;;;;;;;;;;;;;;;;;5072161;28;19948;-61
2021/08/15 05:14:14;;;;;;;;;;;;;;;;;;5076962;28;19912;-61
2021/08/15 05:16:39;;;;;;;;;;;;;;;;;;5076153;28;20280;-61
2021/08/15 05:19:05;;;;;;;;;;;;;;;;;;5075432;28;19999;-61
2021/08/15 05:21:31;;;;;;;;;;;;;;;;;;5075739;28;19942;-61
2021/08/15 05:23:58;;;;;;;;;;;;;;;;;;5073503;28;19919;-61
2021/08/15 05:26:24;;;;;;;;;;;;;;;;;;5074906;28;19916;-61
2021/08/15 05:28:49;;;;;;;;;;;;;;;;;;5077003;28;19912;-61
2021/08/15 05:31:15;;;;;;;;;;;;;;;;;;5074810;28;19991;-61
2021/08/15 05:33:41;;;;;;;;;;;;;;;;;;5074427;28;19912;-61
2021/08/15 05:36:07;;;;;;;;;;;;;;;;;;5059949;28;20287;-61
2021/08/15 05:38:33;;;;;;;;;;;;;;;;;;5072067;28;19928;-61
2021/08/15 05:40:59;;;;;;;;;;;;;;;;;;5077854;28;19944;-61
2021/08/15 05:43:25;;;;;;;;;;;;;;;;;;5074736;28;19908;-61
2021/08/15 05:45:51;;;;;;;;;;;;;;;;;;5074597;28;19987;-61
2021/08/15 05:48:18;;;;;;;;;;;;;;;;;;5075078;28;19908;-61
2021/08/15 05:50:44;;;;;;;;;;;;;;;;;;5071141;28;19921;-61
2021/08/15 05:53:09;;;;;;;;;;;;;;;;;;5077062;28;19913;-61
2021/08/15 05:55:35;;;;;;;;;;;;;;;;;;5074812;28;19935;-61
2021/08/15 05:58:01;;;;;;;;;;;;;;;;;;5074742;28;19990;-61
2021/08/15 06:00:27;;;;;;;;;;;;;;;;;;5074738;28;20430;-61
2021/08/15 06:02:53;;;;;;;;;;;;;;;;;;5071866;28;19917;-61
2021/08/15 06:05:19;;;;;;;;;;;;;;;;;;5073362;28;19916;-61
2021/08/15 06:07:45;;;;;;;;;;;;;;;;;;5074530;28;19962;-61
2021/08/15 06:10:11;;;;;;;;;;;;;;;;;;5070527;28;19973;-61
2021/08/15 06:12:37;;;;;;;;;;;;;;;;;;5071339;28;19969;-61
2021/08/15 06:15:02;;;;;;;;;;;;;;;;;;5071185;28;19928;-61
2021/08/15 06:17:28;;;;;;;;;;;;;;;;;;5070685;28;19978;-61
2021/08/15 06:19:54;;;;;;;;;;;;;;;;;;5070952;28;19912;-61
2021/08/15 06:22:20;;;;;;;;;;;;;;;;;;5067885;28;19936;-60
2021/08/15 06:24:46;;;;;;;;;;;;;;;;;;5064971;28;19958;-61
2021/08/15 06:27:12;;;;;;;;;;;;;;;;;;5067530;28;20038;-61
2021/08/15 06:29:38;;;;;;;;;;;;;;;;;;5071328;28;19916;-61
2021/08/15 06:32:03;;;;;;;;;;;;;;;;;;5072210;28;20011;-61
2021/08/15 06:34:29;;;;;;;;;;;;;;;;;;5069651;28;19919;-59
2021/08/15 06:36:55;;;;;;;;;;;;;;;;;;5070844;28;19964;-59
2021/08/15 06:39:21;;;;;;;;;;;;;;;;;;5071625;28;20295;-59
2021/08/15 06:41:47;;;;;;;;;;;;;;;;;;5067690;28;19924;-59
2021/08/15 06:44:13;;;;;;;;;;;;;;;;;;5073337;28;20007;-57
2021/08/15 06:46:39;;;;;;;;;;;;;;;;;;5069918;28;19916;-58
2021/08/15 06:49:05;;;;;;;;;;;;;;;;;;5071838;28;19986;-58
2021/08/15 06:51:30;;;;;;;;;;;;;;;;;;5071102;28;19919;-58
2021/08/15 06:53:56;;;;;;;;;;;;;;;;;;5068934;28;19963;-59
2021/08/15 06:56:22;;;;;;;;;;;;;;;;;;5070766;28;20455;-59
2021/08/15 06:58:50;;;;;;;;;;;;;;;;;;5046438;28;19921;-58
2021/08/15 07:01:15;;;;;;;;;;;;;;;;;;5069538;28;19926;-58
2021/08/15 07:03:41;;;;;;;;;;;;;;;;;;5070249;28;19912;-61
2021/08/15 07:06:07;;;;;;;;;;;;;;;;;;5071318;28;20329;-61
2021/08/15 07:08:33;;;;;;;;;;;;;;;;;;5057366;28;19955;-58
2021/08/15 07:10:59;;;;;;;;;;;;;;;;;;5073192;28;19912;-60
2021/08/15 07:13:25;;;;;;;;;;;;;;;;;;5067595;28;20315;-59
2021/08/15 07:15:51;;;;;;;;;;;;;;;;;;5067941;28;19929;-61
2021/08/15 07:18:17;;;;;;;;;;;;;;;;;;5068456;28;20276;-59
2021/08/15 07:20:43;;;;;;;;;;;;;;;;;;5068649;28;19913;-57
2021/08/15 07:23:08;;;;;;;;;;;;;;;;;;5071446;28;19915;-57
2021/08/15 07:25:34;;;;;;;;;;;;;;;;;;5069251;28;19912;-58
2021/08/15 07:28:01;;;;;;;;;;;;;;;;;;5068812;28;19965;-57
2021/08/15 07:30:27;;;;;;;;;;;;;;;;;;5070343;28;20336;-60
2021/08/15 07:32:53;;;;;;;;;;;;;;;;;;5070777;28;19967;-59
2021/08/15 07:35:19;;;;;;;;;;;;;;;;;;5073643;28;19915;-59
2021/08/15 07:37:45;;;;;;;;;;;;;;;;;;5072981;28;19916;-59
2021/08/15 07:40:10;;;;;;;;;;;;;;;;;;5071975;28;19956;-60
2021/08/15 07:42:36;;;;;;;;;;;;;;;;;;5071759;28;19917;-60
2021/08/15 07:45:02;;;;;;;;;;;;;;;;;;5071909;28;19912;-59
2021/08/15 07:47:28;;;;;;;;;;;;;;;;;;5069559;28;19908;-59
2021/08/15 07:49:54;;;;;;;;;;;;;;;;;;5071751;28;19909;-59
2021/08/15 07:52:20;;;;;;;;;;;;;;;;;;5071571;28;19942;-59
2021/08/15 07:54:46;;;;;;;;;;;;;;;;;;5070350;28;19919;-59
2021/08/15 07:57:12;;;;;;;;;;;;;;;;;;5071417;28;19916;-59
2021/08/15 07:59:38;;;;;;;;;;;;;;;;;;5074008;28;19970;-59
2021/08/15 08:02:04;;;;;;;;;;;;;;;;;;5091715;28;20390;-59
2021/08/15 08:04:29;;;;;;;;;;;;;;;;;;5074531;28;19913;-59
2021/08/15 08:06:57;;;;;;;;;;;;;;;;;;5073541;28;19935;-59
2021/08/15 08:09:23;;;;;;;;;;;;;;;;;;5073434;28;20638;-59
2021/08/15 08:11:49;;;;;;;;;;;;;;;;;;5072669;28;19956;-59
2021/08/15 08:14:15;;;;;;;;;;;;;;;;;;5077278;28;19920;-59
2021/08/15 08:16:41;;;;;;;;;;;;;;;;;;5076638;28;20287;-65
2021/08/15 08:19:07;;;;;;;;;;;;;;;;;;5075171;28;19908;-68
2021/08/15 08:21:32;;;;;;;;;;;;;;;;;;5075336;28;19912;-68
2021/08/15 08:24:02;;;;;;;;;;;;;;;;;;5074739;28;19953;-67
2021/08/15 08:26:28;;;;;;;;;;;;;;;;;;5073944;28;19913;-67
2021/08/15 08:28:53;;;;;;;;;;;;;;;;;;5077362;28;19924;-67
2021/08/15 08:31:19;;;;;;;;;;;;;;;;;;5076021;28;20011;-68
2021/08/15 08:33:45;;;;;;;;;;;;;;;;;;5075964;28;20053;-67
2021/08/15 08:36:11;;;;;;;;;;;;;;;;;;5075642;28;20363;-67
2021/08/15 08:38:37;;;;;;;;;;;;;;;;;;5071680;28;19920;-67
2021/08/15 08:41:03;;;;;;;;;;;;;;;;;;5078784;28;20473;-67
2021/08/15 08:43:29;;;;;;;;;;;;;;;;;;5074296;28;20038;-68
2021/08/15 08:45:55;;;;;;;;;;;;;;;;;;5074007;28;19999;-67
2021/08/15 08:48:21;;;;;;;;;;;;;;;;;;5073875;28;20016;-67
2021/08/15 08:50:47;;;;;;;;;;;;;;;;;;5070719;28;20360;-67
2021/08/15 08:53:13;;;;;;;;;;;;;;;;;;5075752;28;19908;-67
2021/08/15 08:55:39;;;;;;;;;;;;;;;;;;5075207;28;19912;-67
2021/08/15 08:58:05;;;;;;;;;;;;;;;;;;5075101;28;20007;-67
2021/08/15 09:00:31;;;;;;;;;;;;;;;;;;5075292;28;19918;-67
2021/08/15 09:02:57;;;;;;;;;;;;;;;;;;5072738;28;19952;-67
2021/08/15 09:05:23;;;;;;;;;;;;;;;;;;5075776;28;19916;-67
2021/08/15 09:07:49;;;;;;;;;;;;;;;;;;5076935;28;20014;-67
2021/08/15 09:10:15;;;;;;;;;;;;;;;;;;5074845;28;19999;-67
2021/08/15 09:12:41;;;;;;;;;;;;;;;;;;5075723;28;19916;-68
2021/08/15 09:15:07;;;;;;;;;;;;;;;;;;5074950;28;19927;-68
2021/08/15 09:17:33;;;;;;;;;;;;;;;;;;5071872;28;19952;-68
2021/08/15 09:19:58;;;;;;;;;;;;;;;;;;5077576;28;19908;-68
2021/08/15 09:22:24;;;;;;;;;;;;;;;;;;5075551;28;19912;-68
2021/08/15 09:24:50;;;;;;;;;;;;;;;;;;5075298;28;19952;-68
2021/08/15 09:27:16;;;;;;;;;;;;;;;;;;5075722;28;19916;-68
2021/08/15 09:29:42;;;;;;;;;;;;;;;;;;5071345;28;19936;-68
2021/08/15 09:32:08;;;;;;;;;;;;;;;;;;5077968;28;19912;-68
2021/08/15 09:34:34;;;;;;;;;;;;;;;;;;5075204;28;20380;-68
2021/08/15 09:37:00;;;;;;;;;;;;;;;;;;5074777;28;19955;-67
2021/08/15 09:39:25;;;;;;;;;;;;;;;;;;5060244;28;20374;-68
2021/08/15 09:41:51;;;;;;;;;;;;;;;;;;5072438;28;19913;-67
2021/08/15 09:44:20;;;;;;;;;;;;;;;;;;5075448;28;20340;-67
2021/08/15 09:46:46;;;;;;;;;;;;;;;;;;5076083;28;20057;-67
2021/08/15 09:49:12;;;;;;;;;;;;;;;;;;5074759;28;20003;-67
2021/08/15 09:51:38;;;;;;;;;;;;;;;;;;5075244;28;20356;-68
2021/08/15 09:54:04;;;;;;;;;;;;;;;;;;5073950;28;19930;-68
2021/08/15 09:56:30;;;;;;;;;;;;;;;;;;5072103;28;19921;-67
2021/08/15 09:58:55;;;;;;;;;;;;;;;;;;5077195;28;19917;-67
2021/08/15 10:01:21;;;;;;;;;;;;;;;;;;5074631;28;19958;-68
2021/08/15 10:03:47;;;;;;;;;;;;;;;;;;5074777;28;19954;-67
2021/08/15 10:06:13;;;;;;;;;;;;;;;;;;5074478;28;19912;-67
2021/08/15 10:08:39;;;;;;;;;;;;;;;;;;5070267;28;19912;-67
2021/08/15 10:11:05;;;;;;;;;;;;;;;;;;5077527;28;19908;-67
2021/08/15 10:13:31;;;;;;;;;;;;;;;;;;5074357;28;20066;-67
2021/08/15 10:15:57;;;;;;;;;;;;;;;;;;5074028;28;19921;-67
2021/08/15 10:18:24;;;;;;;;;;;;;;;;;;5074483;28;20359;-67
2021/08/15 10:20:50;;;;;;;;;;;;;;;;;;5071011;28;19936;-67
2021/08/15 10:23:18;;;;;;;;;;;;;;;;;;5074994;28;19998;-68
2021/08/15 10:25:44;;;;;;;;;;;;;;;;;;5075328;28;20011;-68
2021/08/15 10:28:10;;;;;;;;;;;;;;;;;;5074314;28;20456;-68
2021/08/15 10:30:36;;;;;;;;;;;;;;;;;;5074052;28;19912;-68
2021/08/15 10:33:01;;;;;;;;;;;;;;;;;;5057199;28;20430;-68
2021/08/15 10:35:27;;;;;;;;;;;;;;;;;;5072175;28;19916;-67
2021/08/15 10:37:53;;;;;;;;;;;;;;;;;;5075814;28;19981;-66
2021/08/15 10:40:19;;;;;;;;;;;;;;;;;;5073714;28;19909;-68
2021/08/15 10:42:46;;;;;;;;;;;;;;;;;;5073962;28;19944;-68
2021/08/15 10:45:13;;;;;;;;;;;;;;;;;;5073664;28;20423;-68
2021/08/15 10:47:39;;;;;;;;;;;;;;;;;;5069202;28;20312;-68
2021/08/15 10:50:04;;;;;;;;;;;;;;;;;;5077399;28;19916;-68
2021/08/15 10:52:39;;;;;;;;;;;;;;;;;;5073041;28;19952;-68
2021/08/15 10:55:05;;;;;;;;;;;;;;;;;;5073705;28;19912;-68
2021/08/15 10:57:31;;;;;;;;;;;;;;;;;;5073279;28;19935;-69
2021/08/15 10:59:57;;;;;;;;;;;;;;;;;;5071465;28;19913;-69
2021/08/15 11:02:23;;;;;;;;;;;;;;;;;;5073429;28;19912;-68
2021/08/15 11:04:49;;;;;;;;;;;;;;;;;;5074700;28;20232;-69
2021/08/15 11:07:15;;;;;;;;;;;;;;;;;;5073456;28;19914;-68
2021/08/15 11:09:40;;;;;;;;;;;;;;;;;;5073461;28;19913;-68
2021/08/15 11:12:06;;;;;;;;;;;;;;;;;;5072542;28;19951;-68
2021/08/15 11:14:32;;;;;;;;;;;;;;;;;;5069730;28;19979;-68
2021/08/15 11:16:58;;;;;;;;;;;;;;;;;;5075978;28;19999;-69
2021/08/15 11:19:24;;;;;;;;;;;;;;;;;;5073431;28;20019;-68
2021/08/15 11:21:50;;;;;;;;;;;;;;;;;;5072557;28;19912;-68
2021/08/15 11:24:16;;;;;;;;;;;;;;;;;;5073273;28;20458;-68
2021/08/15 11:26:42;;;;;;;;;;;;;;;;;;5068770;28;19912;-68
2021/08/15 11:29:08;;;;;;;;;;;;;;;;;;5075878;28;19909;-68
2021/08/15 11:31:34;;;;;;;;;;;;;;;;;;5071716;28;19921;-69
2021/08/15 11:34:00;;;;;;;;;;;;;;;;;;5073231;28;19920;-68
2021/08/15 11:36:25;;;;;;;;;;;;;;;;;;5073082;28;19912;-68
2021/08/15 11:38:51;;;;;;;;;;;;;;;;;;5069718;28;19925;-69
2021/08/15 11:41:17;;;;;;;;;;;;;;;;;;5073629;28;19927;-69
2021/08/15 11:43:43;;;;;;;;;;;;;;;;;;5074227;28;19978;-69
2021/08/15 11:46:10;;;;;;;;;;;;;;;;;;5072178;28;19912;-69
2021/08/15 11:48:37;;;;;;;;;;;;;;;;;;5073111;28;19916;-68
2021/08/15 11:51:03;;;;;;;;;;;;;;;;;;5071788;28;19912;-68
2021/08/15 11:53:30;;;;;;;;;;;;;;;;;;5070886;28;19928;-68
2021/08/15 11:55:56;;;;;;;;;;;;;;;;;;5074715;28;19950;-69
2021/08/15 11:58:21;;;;;;;;;;;;;;;;;;5072222;28;19924;-69
2021/08/15 12:00:48;;;;;;;;;;;;;;;;;;5072837;28;19912;-69
2021/08/15 12:03:14;;;;;;;;;;;;;;;;;;5072987;28;19916;-68
2021/08/15 12:05:39;;;;;;;;;;;;;;;;;;5067894;28;19912;-68
2021/08/15 12:08:05;;;;;;;;;;;;;;;;;;5076070;28;19908;-68
2021/08/15 12:10:31;;;;;;;;;;;;;;;;;;5072539;28;20283;-69
2021/08/15 12:12:57;;;;;;;;;;;;;;;;;;5072403;28;20391;-69
2021/08/15 12:15:23;;;;;;;;;;;;;;;;;;5072214;28;19920;-68
2021/08/15 12:17:49;;;;;;;;;;;;;;;;;;5051628;28;19916;-69
2021/08/15 12:20:15;;;;;;;;;;;;;;;;;;5073189;28;19952;-69
2021/08/15 12:22:41;;;;;;;;;;;;;;;;;;5073013;28;19977;-69
2021/08/15 12:25:07;;;;;;;;;;;;;;;;;;5070849;28;19925;-69
2021/08/15 12:27:33;;;;;;;;;;;;;;;;;;5070091;28;19920;-69
2021/08/15 12:29:59;;;;;;;;;;;;;;;;;;5069520;28;20542;-68
2021/08/15 12:32:25;;;;;;;;;;;;;;;;;;5070592;28;20360;-68
2021/08/15 12:34:51;;;;;;;;;;;;;;;;;;5072613;28;19993;-69
2021/08/15 12:37:17;;;;;;;;;;;;;;;;;;5071176;28;20398;-68
2021/08/15 12:39:43;;;;;;;;;;;;;;;;;;5070486;28;19929;-69
2021/08/15 12:42:09;;;;;;;;;;;;;;;;;;5071834;28;20339;-69
2021/08/15 12:44:35;;;;;;;;;;;;;;;;;;5072782;28;19913;-69
2021/08/15 12:47:00;;;;;;;;;;;;;;;;;;5078983;28;19908;-68
2021/08/15 12:49:26;;;;;;;;;;;;;;;;;;5076008;28;19963;-69
2021/08/15 12:51:52;;;;;;;;;;;;;;;;;;5075134;28;19938;-69
2021/08/15 12:54:18;;;;;;;;;;;;;;;;;;5075888;28;19912;-69
2021/08/15 12:56:44;;;;;;;;;;;;;;;;;;5071865;28;19920;-69
2021/08/15 12:59:10;;;;;;;;;;;;;;;;;;5078576;28;19917;-69
2021/08/15 13:01:36;;;;;;;;;;;;;;;;;;5077543;28;19995;-69
2021/08/15 13:04:02;;;;;;;;;;;;;;;;;;5075432;28;19912;-69
2021/08/15 13:06:28;;;;;;;;;;;;;;;;;;5075578;28;19912;-69
2021/08/15 13:08:54;;;;;;;;;;;;;;;;;;5073237;28;19917;-69
2021/08/15 13:11:19;;;;;;;;;;;;;;;;;;5075713;28;19909;-69
2021/08/15 13:13:45;;;;;;;;;;;;;;;;;;5076723;28;20352;-68
2021/08/15 13:16:11;;;;;;;;;;;;;;;;;;5075346;28;19920;-68
2021/08/15 13:18:37;;;;;;;;;;;;;;;;;;5075278;28;20442;-69
2021/08/15 13:21:03;;;;;;;;;;;;;;;;;;5073148;28;20002;-69
2021/08/15 13:23:29;;;;;;;;;;;;;;;;;;5071178;28;19948;-69
2021/08/15 13:25:56;;;;;;;;;;;;;;;;;;5075967;28;20674;-69
2021/08/15 13:28:22;;;;;;;;;;;;;;;;;;5074949;28;19966;-69
2021/08/15 13:30:48;;;;;;;;;;;;;;;;;;5072326;28;19916;-69
2021/08/15 13:33:14;;;;;;;;;;;;;;;;;;5072750;28;19923;-69
2021/08/15 13:35:39;;;;;;;;;;;;;;;;;;5072435;28;19912;-68
2021/08/15 13:38:05;;;;;;;;;;;;;;;;;;5073871;28;19938;-68
2021/08/15 13:40:32;;;;;;;;;;;;;;;;;;5064962;28;19962;-68
2021/08/15 13:43:00;;;;;;;;;;;;;;;;;;5055361;28;19916;-68
2021/08/15 13:45:25;;;;;;;;;;;;;;;;;;5071654;28;19917;-68
2021/08/15 13:47:52;;;;;;;;;;;;;;;;;;5072107;28;19912;-68
2021/08/15 13:50:18;;;;;;;;;;;;;;;;;;5072530;28;20358;-68
2021/08/15 13:52:44;;;;;;;;;;;;;;;;;;5070865;28;19924;-68
2021/08/15 13:55:10;;;;;;;;;;;;;;;;;;5070720;28;19912;-68
2021/08/15 13:57:36;;;;;;;;;;;;;;;;;;5072009;28;19965;-68
2021/08/15 14:00:02;;;;;;;;;;;;;;;;;;5072168;28;20241;-68
2021/08/15 14:02:28;;;;;;;;;;;;;;;;;;5072407;28;19908;-68
2021/08/15 14:04:54;;;;;;;;;;;;;;;;;;5059471;28;20003;-68
2021/08/15 14:07:20;;;;;;;;;;;;;;;;;;5071864;28;19921;-68
2021/08/15 14:09:46;;;;;;;;;;;;;;;;;;5071820;28;19912;-68
2021/08/15 14:12:12;;;;;;;;;;;;;;;;;;5071239;28;19948;-68
2021/08/15 14:14:38;;;;;;;;;;;;;;;;;;5071774;28;19935;-68
2021/08/15 14:17:03;;;;;;;;;;;;;;;;;;5073095;28;19936;-68
2021/08/15 14:19:29;;;;;;;;;;;;;;;;;;5071289;28;20016;-68
2021/08/15 14:21:55;;;;;;;;;;;;;;;;;;5071839;28;20326;-68
2021/08/15 14:24:21;;;;;;;;;;;;;;;;;;5071455;28;19913;-68
2021/08/15 14:26:47;;;;;;;;;;;;;;;;;;5071465;28;19917;-68
2021/08/15 14:29:13;;;;;;;;;;;;;;;;;;5072179;28;19948;-68
2021/08/15 14:31:39;;;;;;;;;;;;;;;;;;5074209;28;19919;-68
2021/08/15 14:34:05;;;;;;;;;;;;;;;;;;5073103;28;19912;-68
2021/08/15 14:36:30;;;;;;;;;;;;;;;;;;5071243;28;19958;-68
2021/08/15 14:38:56;;;;;;;;;;;;;;;;;;5071351;28;19921;-68
2021/08/15 14:41:22;;;;;;;;;;;;;;;;;;5069959;28;19909;-68
2021/08/15 14:43:48;;;;;;;;;;;;;;;;;;5072401;28;19944;-68
2021/08/15 14:46:14;;;;;;;;;;;;;;;;;;5071102;28;19920;-68
2021/08/15 14:48:41;;;;;;;;;;;;;;;;;;5038425;28;19912;-70
2021/08/15 14:51:07;;;;;;;;;;;;;;;;;;5065161;28;19995;-69
2021/08/15 14:53:33;;;;;;;;;;;;;;;;;;5084609;28;19951;-69
2021/08/15 14:55:59;;;;;;;;;;;;;;;;;;5076652;28;20010;-69
2021/08/15 14:58:25;;;;;;;;;;;;;;;;;;5063443;28;19921;-69
2021/08/15 15:00:51;;;;;;;;;;;;;;;;;;5070791;28;19913;-69
2021/08/15 15:03:17;;;;;;;;;;;;;;;;;;5066545;28;20005;-69
2021/08/15 15:05:42;;;;;;;;;;;;;;;;;;5068971;28;20007;-69
2021/08/15 15:08:08;;;;;;;;;;;;;;;;;;5068368;28;20327;-69
2021/08/15 15:10:34;;;;;;;;;;;;;;;;;;5071843;28;19921;-69
2021/08/15 15:13:00;;;;;;;;;;;;;;;;;;5073362;28;19916;-69
2021/08/15 15:15:26;;;;;;;;;;;;;;;;;;5069523;28;20383;-69
2021/08/15 15:17:52;;;;;;;;;;;;;;;;;;5057977;28;19928;-69
2021/08/15 15:20:18;;;;;;;;;;;;;;;;;;5066439;28;19908;-69
2021/08/15 15:22:45;;;;;;;;;;;;;;;;;;5073604;28;19923;-69
2021/08/15 15:25:13;;;;;;;;;;;;;;;;;;5071712;28;19975;-69
2021/08/15 15:27:39;;;;;;;;;;;;;;;;;;5078644;28;19912;-69
2021/08/15 15:30:05;;;;;;;;;;;;;;;;;;5069073;28;19944;-69
2021/08/15 15:32:31;;;;;;;;;;;;;;;;;;5069450;28;20021;-69
2021/08/15 15:34:57;;;;;;;;;;;;;;;;;;5060342;28;20359;-68
2021/08/15 15:37:23;;;;;;;;;;;;;;;;;;5068315;28;20360;-69
2021/08/15 15:39:49;;;;;;;;;;;;;;;;;;5046986;28;19955;-69
2021/08/15 15:42:15;;;;;;;;;;;;;;;;;;5072733;28;19912;-69
2021/08/15 15:44:40;;;;;;;;;;;;;;;;;;5061550;28;19920;-68
2021/08/15 15:47:06;;;;;;;;;;;;;;;;;;5078217;28;20381;-68
2021/08/15 15:49:32;;;;;;;;;;;;;;;;;;5062960;28;19909;-68
2021/08/15 15:51:58;;;;;;;;;;;;;;;;;;5087818;28;19912;-68
2021/08/15 15:54:24;;;;;;;;;;;;;;;;;;5071321;28;19913;-68
2021/08/15 15:56:50;;;;;;;;;;;;;;;;;;5068571;28;19920;-68
2021/08/15 15:59:16;;;;;;;;;;;;;;;;;;5060992;28;19977;-68
2021/08/15 16:01:42;;;;;;;;;;;;;;;;;;5072337;28;20284;-68
2021/08/15 16:04:08;;;;;;;;;;;;;;;;;;5070660;28;19943;-68
2021/08/15 16:06:34;;;;;;;;;;;;;;;;;;5071911;28;20134;-68
2021/08/15 16:09:00;;;;;;;;;;;;;;;;;;5069787;28;19909;-69
2021/08/15 16:11:26;;;;;;;;;;;;;;;;;;5071475;28;20395;-68
2021/08/15 16:13:52;;;;;;;;;;;;;;;;;;5072853;28;19912;-68
2021/08/15 16:16:17;;;;;;;;;;;;;;;;;;5066460;28;20091;-68
2021/08/15 16:18:43;;;;;;;;;;;;;;;;;;5067899;28;20345;-68
2021/08/15 16:21:09;;;;;;;;;;;;;;;;;;5085712;28;19912;-59
2021/08/15 16:23:35;;;;;;;;;;;;;;;;;;5071280;28;20368;-59
2021/08/15 16:26:02;;;;;;;;;;;;;;;;;;5086452;28;19944;-59
2021/08/15 16:28:28;;;;;;;;;;;;;;;;;;5075262;28;19912;-59
2021/08/15 16:30:54;;;;;;;;;;;;;;;;;;5075770;28;19912;-59
2021/08/15 16:33:19;;;;;;;;;;;;;;;;;;5075564;28;20006;-59
2021/08/15 16:35:45;;;;;;;;;;;;;;;;;;5069359;28;19920;-59